sensor_id;sensor_type;location;lat;lon;timestamp;P1;durP1;ratioP1;P2;durP2;ratioP2
74620;SDS011;64861;47.546;19.254;2023-05-27T00:00:08;7.45;;;4.32;;
74620;SDS011;64861;47.546;19.254;2023-05-27T00:02:35;7.32;;;4.40;;
74620;SDS011;64861;47.546;19.254;2023-05-27T00:05:01;7.43;;;4.38;;
74620;SDS011;64861;47.546;19.254;2023-05-27T00:07:27;7.13;;;3.90;;
74620;SDS011;64861;47.546;19.254;2023-05-27T00:09:53;6.90;;;4.45;;
74620;SDS011;64861;47.546;19.254;2023-05-27T00:12:18;7.05;;;4.60;;
74620;SDS011;64861;47.546;19.254;2023-05-27T00:14:44;8.55;;;4.82;;
74620;SDS011;64861;47.546;19.254;2023-05-27T00:17:11;6.65;;;4.50;;
74620;SDS011;64861;47.546;19.254;2023-05-27T00:19:39;8.98;;;4.97;;
74620;SDS011;64861;47.546;19.254;2023-05-27T00:22:10;6.80;;;4.35;;
74620;SDS011;64861;47.546;19.254;2023-05-27T00:24:36;6.57;;;4.50;;
74620;SDS011;64861;47.546;19.254;2023-05-27T00:27:04;7.57;;;4.40;;
74620;SDS011;64861;47.546;19.254;2023-05-27T00:29:30;6.70;;;4.40;;
74620;SDS011;64861;47.546;19.254;2023-05-27T00:31:56;7.93;;;4.70;;
74620;SDS011;64861;47.546;19.254;2023-05-27T00:34:21;7.80;;;4.97;;
74620;SDS011;64861;47.546;19.254;2023-05-27T00:36:47;8.00;;;4.40;;
74620;SDS011;64861;47.546;19.254;2023-05-27T00:39:12;7.43;;;4.72;;
74620;SDS011;64861;47.546;19.254;2023-05-27T00:41:38;7.53;;;4.97;;
74620;SDS011;64861;47.546;19.254;2023-05-27T00:44:11;9.63;;;4.72;;
74620;SDS011;64861;47.546;19.254;2023-05-27T00:46:37;6.57;;;4.35;;
74620;SDS011;64861;47.546;19.254;2023-05-27T00:49:02;6.38;;;4.45;;
74620;SDS011;64861;47.546;19.254;2023-05-27T00:51:28;7.13;;;4.53;;
74620;SDS011;64861;47.546;19.254;2023-05-27T00:53:53;7.40;;;4.63;;
74620;SDS011;64861;47.546;19.254;2023-05-27T00:56:19;7.85;;;4.90;;
74620;SDS011;64861;47.546;19.254;2023-05-27T00:58:46;7.45;;;4.55;;
74620;SDS011;64861;47.546;19.254;2023-05-27T01:01:11;7.22;;;4.72;;
74620;SDS011;64861;47.546;19.254;2023-05-27T01:03:37;7.25;;;4.70;;
74620;SDS011;64861;47.546;19.254;2023-05-27T01:11:41;8.20;;;4.82;;
74620;SDS011;64861;47.546;19.254;2023-05-27T01:14:10;7.03;;;4.93;;
74620;SDS011;64861;47.546;19.254;2023-05-27T01:16:38;6.97;;;4.70;;
74620;SDS011;64861;47.546;19.254;2023-05-27T01:19:12;6.80;;;4.80;;
74620;SDS011;64861;47.546;19.254;2023-05-27T01:21:39;7.75;;;4.90;;
74620;SDS011;64861;47.546;19.254;2023-05-27T01:24:09;8.02;;;5.00;;
74620;SDS011;64861;47.546;19.254;2023-05-27T01:26:36;6.65;;;4.63;;
74620;SDS011;64861;47.546;19.254;2023-05-27T01:29:02;7.68;;;4.82;;
74620;SDS011;64861;47.546;19.254;2023-05-27T01:31:34;8.18;;;5.13;;
74620;SDS011;64861;47.546;19.254;2023-05-27T01:34:09;8.32;;;5.20;;
74620;SDS011;64861;47.546;19.254;2023-05-27T01:36:42;8.20;;;5.45;;
74620;SDS011;64861;47.546;19.254;2023-05-27T01:39:16;7.95;;;5.13;;
74620;SDS011;64861;47.546;19.254;2023-05-27T01:41:42;7.88;;;4.45;;
74620;SDS011;64861;47.546;19.254;2023-05-27T01:44:08;9.15;;;5.03;;
74620;SDS011;64861;47.546;19.254;2023-05-27T01:46:35;7.45;;;4.60;;
74620;SDS011;64861;47.546;19.254;2023-05-27T01:49:01;10.32;;;4.43;;
74620;SDS011;64861;47.546;19.254;2023-05-27T01:51:26;7.13;;;5.00;;
74620;SDS011;64861;47.546;19.254;2023-05-27T01:53:52;6.55;;;4.50;;
74620;SDS011;64861;47.546;19.254;2023-05-27T01:56:17;6.85;;;4.78;;
74620;SDS011;64861;47.546;19.254;2023-05-27T01:58:43;7.25;;;4.93;;
74620;SDS011;64861;47.546;19.254;2023-05-27T02:01:09;7.93;;;5.28;;
74620;SDS011;64861;47.546;19.254;2023-05-27T02:03:34;8.00;;;4.72;;
74620;SDS011;64861;47.546;19.254;2023-05-27T02:06:00;7.38;;;5.03;;
74620;SDS011;64861;47.546;19.254;2023-05-27T02:08:25;7.25;;;5.03;;
74620;SDS011;64861;47.546;19.254;2023-05-27T02:10:52;8.10;;;4.75;;
74620;SDS011;64861;47.546;19.254;2023-05-27T02:13:18;6.88;;;5.07;;
74620;SDS011;64861;47.546;19.254;2023-05-27T02:15:43;6.93;;;4.60;;
74620;SDS011;64861;47.546;19.254;2023-05-27T02:18:09;7.75;;;4.88;;
74620;SDS011;64861;47.546;19.254;2023-05-27T02:20:35;7.22;;;5.07;;
74620;SDS011;64861;47.546;19.254;2023-05-27T02:23:00;7.22;;;4.80;;
74620;SDS011;64861;47.546;19.254;2023-05-27T02:25:26;8.63;;;5.05;;
74620;SDS011;64861;47.546;19.254;2023-05-27T02:27:51;7.35;;;4.97;;
74620;SDS011;64861;47.546;19.254;2023-05-27T02:30:17;7.30;;;4.82;;
74620;SDS011;64861;47.546;19.254;2023-05-27T02:32:43;7.20;;;4.72;;
74620;SDS011;64861;47.546;19.254;2023-05-27T02:35:09;7.22;;;5.00;;
74620;SDS011;64861;47.546;19.254;2023-05-27T02:37:37;7.28;;;4.40;;
74620;SDS011;64861;47.546;19.254;2023-05-27T02:40:03;6.95;;;4.95;;
74620;SDS011;64861;47.546;19.254;2023-05-27T02:42:30;6.35;;;4.65;;
74620;SDS011;64861;47.546;19.254;2023-05-27T02:44:55;7.10;;;5.07;;
74620;SDS011;64861;47.546;19.254;2023-05-27T02:47:21;8.63;;;5.38;;
74620;SDS011;64861;47.546;19.254;2023-05-27T02:49:46;5.82;;;4.10;;
74620;SDS011;64861;47.546;19.254;2023-05-27T02:52:12;6.90;;;4.93;;
74620;SDS011;64861;47.546;19.254;2023-05-27T02:54:37;7.18;;;4.80;;
74620;SDS011;64861;47.546;19.254;2023-05-27T02:57:03;7.03;;;4.70;;
74620;SDS011;64861;47.546;19.254;2023-05-27T02:59:28;7.30;;;5.13;;
74620;SDS011;64861;47.546;19.254;2023-05-27T03:01:54;7.95;;;5.10;;
74620;SDS011;64861;47.546;19.254;2023-05-27T03:04:19;8.23;;;4.63;;
74620;SDS011;64861;47.546;19.254;2023-05-27T03:06:46;7.22;;;4.93;;
74620;SDS011;64861;47.546;19.254;2023-05-27T03:09:12;6.80;;;4.70;;
74620;SDS011;64861;47.546;19.254;2023-05-27T03:11:38;7.72;;;5.00;;
74620;SDS011;64861;47.546;19.254;2023-05-27T03:14:04;10.40;;;5.13;;
74620;SDS011;64861;47.546;19.254;2023-05-27T03:16:29;8.75;;;5.38;;
74620;SDS011;64861;47.546;19.254;2023-05-27T03:18:55;7.35;;;5.05;;
74620;SDS011;64861;47.546;19.254;2023-05-27T03:21:20;8.85;;;5.00;;
74620;SDS011;64861;47.546;19.254;2023-05-27T03:23:46;8.85;;;4.70;;
74620;SDS011;64861;47.546;19.254;2023-05-27T03:26:11;7.72;;;4.82;;
74620;SDS011;64861;47.546;19.254;2023-05-27T03:28:36;6.95;;;4.82;;
74620;SDS011;64861;47.546;19.254;2023-05-27T03:31:02;7.22;;;4.80;;
74620;SDS011;64861;47.546;19.254;2023-05-27T03:33:28;6.65;;;4.65;;
74620;SDS011;64861;47.546;19.254;2023-05-27T03:35:53;6.75;;;4.50;;
74620;SDS011;64861;47.546;19.254;2023-05-27T03:38:20;6.55;;;4.50;;
74620;SDS011;64861;47.546;19.254;2023-05-27T03:40:46;7.95;;;5.43;;
74620;SDS011;64861;47.546;19.254;2023-05-27T03:43:11;7.72;;;4.80;;
74620;SDS011;64861;47.546;19.254;2023-05-27T03:45:37;7.18;;;4.70;;
74620;SDS011;64861;47.546;19.254;2023-05-27T03:48:02;7.18;;;4.43;;
74620;SDS011;64861;47.546;19.254;2023-05-27T03:50:28;6.95;;;4.68;;
74620;SDS011;64861;47.546;19.254;2023-05-27T03:52:53;6.72;;;4.53;;
74620;SDS011;64861;47.546;19.254;2023-05-27T03:55:19;7.80;;;4.93;;
74620;SDS011;64861;47.546;19.254;2023-05-27T03:57:46;8.55;;;4.88;;
74620;SDS011;64861;47.546;19.254;2023-05-27T04:00:11;7.50;;;4.97;;
74620;SDS011;64861;47.546;19.254;2023-05-27T04:02:37;8.88;;;5.30;;
74620;SDS011;64861;47.546;19.254;2023-05-27T04:05:04;7.68;;;5.15;;
74620;SDS011;64861;47.546;19.254;2023-05-27T04:07:29;8.20;;;5.25;;
74620;SDS011;64861;47.546;19.254;2023-05-27T04:09:56;6.63;;;4.70;;
74620;SDS011;64861;47.546;19.254;2023-05-27T04:12:22;7.43;;;4.47;;
74620;SDS011;64861;47.546;19.254;2023-05-27T04:14:48;7.20;;;4.88;;
74620;SDS011;64861;47.546;19.254;2023-05-27T04:17:13;8.57;;;4.90;;
74620;SDS011;64861;47.546;19.254;2023-05-27T04:19:39;7.90;;;5.30;;
74620;SDS011;64861;47.546;19.254;2023-05-27T04:22:04;8.30;;;5.00;;
74620;SDS011;64861;47.546;19.254;2023-05-27T04:24:30;6.72;;;4.88;;
74620;SDS011;64861;47.546;19.254;2023-05-27T04:26:55;8.52;;;5.53;;
74620;SDS011;64861;47.546;19.254;2023-05-27T04:29:21;6.70;;;4.93;;
74620;SDS011;64861;47.546;19.254;2023-05-27T04:31:47;6.50;;;4.60;;
74620;SDS011;64861;47.546;19.254;2023-05-27T04:34:13;7.68;;;5.25;;
74620;SDS011;64861;47.546;19.254;2023-05-27T04:36:39;7.50;;;4.80;;
74620;SDS011;64861;47.546;19.254;2023-05-27T04:39:04;10.32;;;5.18;;
74620;SDS011;64861;47.546;19.254;2023-05-27T04:41:30;8.20;;;5.22;;
74620;SDS011;64861;47.546;19.254;2023-05-27T04:43:57;8.30;;;5.07;;
74620;SDS011;64861;47.546;19.254;2023-05-27T04:46:26;7.72;;;5.18;;
74620;SDS011;64861;47.546;19.254;2023-05-27T04:48:52;7.15;;;5.10;;
74620;SDS011;64861;47.546;19.254;2023-05-27T04:51:18;7.75;;;5.30;;
74620;SDS011;64861;47.546;19.254;2023-05-27T04:53:44;8.25;;;4.95;;
74620;SDS011;64861;47.546;19.254;2023-05-27T04:56:10;9.07;;;5.28;;
74620;SDS011;64861;47.546;19.254;2023-05-27T04:58:40;8.55;;;4.95;;
74620;SDS011;64861;47.546;19.254;2023-05-27T05:01:07;8.00;;;5.30;;
74620;SDS011;64861;47.546;19.254;2023-05-27T05:03:41;11.23;;;4.82;;
74620;SDS011;64861;47.546;19.254;2023-05-27T05:06:17;8.02;;;4.85;;
74620;SDS011;64861;47.546;19.254;2023-05-27T05:08:43;8.98;;;5.07;;
74620;SDS011;64861;47.546;19.254;2023-05-27T05:11:09;7.60;;;4.82;;
74620;SDS011;64861;47.546;19.254;2023-05-27T05:13:34;8.60;;;4.47;;
74620;SDS011;64861;47.546;19.254;2023-05-27T05:16:00;7.90;;;4.38;;
74620;SDS011;64861;47.546;19.254;2023-05-27T05:18:25;6.60;;;4.57;;
74620;SDS011;64861;47.546;19.254;2023-05-27T05:20:51;8.95;;;4.70;;
74620;SDS011;64861;47.546;19.254;2023-05-27T05:23:17;7.22;;;4.95;;
74620;SDS011;64861;47.546;19.254;2023-05-27T05:25:43;8.13;;;4.88;;
74620;SDS011;64861;47.546;19.254;2023-05-27T05:28:08;7.50;;;4.72;;
74620;SDS011;64861;47.546;19.254;2023-05-27T05:30:34;8.18;;;4.88;;
74620;SDS011;64861;47.546;19.254;2023-05-27T05:32:59;7.53;;;4.55;;
74620;SDS011;64861;47.546;19.254;2023-05-27T05:35:25;7.70;;;4.50;;
74620;SDS011;64861;47.546;19.254;2023-05-27T05:37:50;9.60;;;4.10;;
74620;SDS011;64861;47.546;19.254;2023-05-27T05:40:16;10.55;;;4.47;;
74620;SDS011;64861;47.546;19.254;2023-05-27T05:42:41;11.02;;;4.65;;
74620;SDS011;64861;47.546;19.254;2023-05-27T05:45:07;10.13;;;4.35;;
74620;SDS011;64861;47.546;19.254;2023-05-27T05:47:33;6.30;;;4.65;;
74620;SDS011;64861;47.546;19.254;2023-05-27T05:49:58;6.65;;;4.43;;
74620;SDS011;64861;47.546;19.254;2023-05-27T05:52:24;8.50;;;4.68;;
74620;SDS011;64861;47.546;19.254;2023-05-27T05:54:50;7.43;;;4.25;;
74620;SDS011;64861;47.546;19.254;2023-05-27T05:57:16;17.80;;;5.82;;
74620;SDS011;64861;47.546;19.254;2023-05-27T05:59:41;13.48;;;5.55;;
74620;SDS011;64861;47.546;19.254;2023-05-27T06:02:06;15.43;;;5.65;;
74620;SDS011;64861;47.546;19.254;2023-05-27T06:04:32;9.95;;;5.68;;
74620;SDS011;64861;47.546;19.254;2023-05-27T06:06:57;17.63;;;5.85;;
74620;SDS011;64861;47.546;19.254;2023-05-27T06:09:23;14.23;;;5.70;;
74620;SDS011;64861;47.546;19.254;2023-05-27T06:11:50;14.95;;;5.63;;
74620;SDS011;64861;47.546;19.254;2023-05-27T06:14:15;15.13;;;5.10;;
74620;SDS011;64861;47.546;19.254;2023-05-27T06:16:41;12.00;;;4.88;;
74620;SDS011;64861;47.546;19.254;2023-05-27T06:19:06;13.57;;;5.47;;
74620;SDS011;64861;47.546;19.254;2023-05-27T06:21:32;13.80;;;5.22;;
74620;SDS011;64861;47.546;19.254;2023-05-27T06:23:58;15.32;;;4.97;;
74620;SDS011;64861;47.546;19.254;2023-05-27T06:26:25;11.18;;;4.95;;
74620;SDS011;64861;47.546;19.254;2023-05-27T06:28:52;15.90;;;5.07;;
74620;SDS011;64861;47.546;19.254;2023-05-27T06:31:18;13.65;;;5.47;;
74620;SDS011;64861;47.546;19.254;2023-05-27T06:33:43;11.30;;;4.43;;
74620;SDS011;64861;47.546;19.254;2023-05-27T06:36:10;15.45;;;5.20;;
74620;SDS011;64861;47.546;19.254;2023-05-27T06:38:35;25.00;;;5.15;;
74620;SDS011;64861;47.546;19.254;2023-05-27T06:41:01;14.80;;;4.65;;
74620;SDS011;64861;47.546;19.254;2023-05-27T06:43:26;11.57;;;4.60;;
74620;SDS011;64861;47.546;19.254;2023-05-27T06:45:52;16.85;;;5.13;;
74620;SDS011;64861;47.546;19.254;2023-05-27T06:48:18;15.32;;;4.93;;
74620;SDS011;64861;47.546;19.254;2023-05-27T06:50:43;12.85;;;4.57;;
74620;SDS011;64861;47.546;19.254;2023-05-27T06:53:09;13.85;;;4.68;;
74620;SDS011;64861;47.546;19.254;2023-05-27T06:55:35;16.88;;;5.15;;
74620;SDS011;64861;47.546;19.254;2023-05-27T07:00:32;17.63;;;5.03;;
74620;SDS011;64861;47.546;19.254;2023-05-27T07:02:57;23.40;;;4.70;;
74620;SDS011;64861;47.546;19.254;2023-05-27T07:05:23;16.30;;;4.72;;
74620;SDS011;64861;47.546;19.254;2023-05-27T07:07:48;17.58;;;4.30;;
74620;SDS011;64861;47.546;19.254;2023-05-27T07:10:13;11.40;;;4.53;;
74620;SDS011;64861;47.546;19.254;2023-05-27T07:12:39;13.30;;;4.88;;
74620;SDS011;64861;47.546;19.254;2023-05-27T07:15:04;17.02;;;4.82;;
74620;SDS011;64861;47.546;19.254;2023-05-27T07:17:31;16.10;;;5.25;;
74620;SDS011;64861;47.546;19.254;2023-05-27T07:19:56;15.23;;;4.38;;
74620;SDS011;64861;47.546;19.254;2023-05-27T07:22:22;13.52;;;4.65;;
74620;SDS011;64861;47.546;19.254;2023-05-27T07:24:47;24.92;;;5.13;;
74620;SDS011;64861;47.546;19.254;2023-05-27T07:27:13;12.50;;;4.55;;
74620;SDS011;64861;47.546;19.254;2023-05-27T07:29:38;16.58;;;4.78;;
74620;SDS011;64861;47.546;19.254;2023-05-27T07:32:03;13.45;;;4.70;;
74620;SDS011;64861;47.546;19.254;2023-05-27T07:34:29;16.83;;;4.65;;
74620;SDS011;64861;47.546;19.254;2023-05-27T07:36:55;22.38;;;4.72;;
74620;SDS011;64861;47.546;19.254;2023-05-27T07:39:21;15.82;;;4.80;;
74620;SDS011;64861;47.546;19.254;2023-05-27T07:41:46;11.25;;;4.30;;
74620;SDS011;64861;47.546;19.254;2023-05-27T07:44:12;17.98;;;4.50;;
74620;SDS011;64861;47.546;19.254;2023-05-27T07:46:37;11.00;;;4.00;;
74620;SDS011;64861;47.546;19.254;2023-05-27T07:49:03;12.80;;;4.32;;
74620;SDS011;64861;47.546;19.254;2023-05-27T07:51:30;11.32;;;3.80;;
74620;SDS011;64861;47.546;19.254;2023-05-27T07:53:56;14.90;;;4.35;;
74620;SDS011;64861;47.546;19.254;2023-05-27T07:56:22;16.10;;;4.28;;
74620;SDS011;64861;47.546;19.254;2023-05-27T07:58:48;13.35;;;4.28;;
74620;SDS011;64861;47.546;19.254;2023-05-27T08:01:13;16.15;;;4.70;;
74620;SDS011;64861;47.546;19.254;2023-05-27T08:03:39;17.77;;;4.65;;
74620;SDS011;64861;47.546;19.254;2023-05-27T08:06:04;11.45;;;4.47;;
74620;SDS011;64861;47.546;19.254;2023-05-27T08:08:30;10.77;;;4.40;;
74620;SDS011;64861;47.546;19.254;2023-05-27T08:10:56;12.15;;;4.15;;
74620;SDS011;64861;47.546;19.254;2023-05-27T08:13:22;15.65;;;4.47;;
74620;SDS011;64861;47.546;19.254;2023-05-27T08:15:47;12.23;;;4.15;;
74620;SDS011;64861;47.546;19.254;2023-05-27T08:18:13;12.73;;;4.13;;
74620;SDS011;64861;47.546;19.254;2023-05-27T08:20:38;14.18;;;4.72;;
74620;SDS011;64861;47.546;19.254;2023-05-27T08:23:04;16.40;;;5.70;;
74620;SDS011;64861;47.546;19.254;2023-05-27T08:25:29;15.80;;;4.40;;
74620;SDS011;64861;47.546;19.254;2023-05-27T08:27:56;10.80;;;4.57;;
74620;SDS011;64861;47.546;19.254;2023-05-27T08:30:27;10.10;;;4.63;;
74620;SDS011;64861;47.546;19.254;2023-05-27T08:32:56;12.00;;;4.32;;
74620;SDS011;64861;47.546;19.254;2023-05-27T08:35:22;12.00;;;4.78;;
74620;SDS011;64861;47.546;19.254;2023-05-27T08:37:48;13.40;;;5.00;;
74620;SDS011;64861;47.546;19.254;2023-05-27T08:40:14;16.48;;;4.55;;
74620;SDS011;64861;47.546;19.254;2023-05-27T08:42:41;11.98;;;4.97;;
74620;SDS011;64861;47.546;19.254;2023-05-27T08:45:08;19.40;;;5.32;;
74620;SDS011;64861;47.546;19.254;2023-05-27T08:47:34;11.55;;;5.15;;
74620;SDS011;64861;47.546;19.254;2023-05-27T08:50:01;13.43;;;5.28;;
74620;SDS011;64861;47.546;19.254;2023-05-27T08:52:27;13.40;;;5.10;;
74620;SDS011;64861;47.546;19.254;2023-05-27T08:54:56;12.57;;;5.22;;
74620;SDS011;64861;47.546;19.254;2023-05-27T08:57:27;14.25;;;5.30;;
74620;SDS011;64861;47.546;19.254;2023-05-27T08:59:55;14.40;;;4.75;;
74620;SDS011;64861;47.546;19.254;2023-05-27T09:02:22;11.15;;;4.97;;
74620;SDS011;64861;47.546;19.254;2023-05-27T09:04:48;13.88;;;4.82;;
74620;SDS011;64861;47.546;19.254;2023-05-27T09:07:14;12.52;;;5.28;;
74620;SDS011;64861;47.546;19.254;2023-05-27T09:09:39;14.13;;;4.90;;
74620;SDS011;64861;47.546;19.254;2023-05-27T09:12:05;13.27;;;5.00;;
74620;SDS011;64861;47.546;19.254;2023-05-27T09:14:33;11.38;;;5.20;;
74620;SDS011;64861;47.546;19.254;2023-05-27T09:17:04;9.90;;;5.40;;
74620;SDS011;64861;47.546;19.254;2023-05-27T09:19:31;12.02;;;5.38;;
74620;SDS011;64861;47.546;19.254;2023-05-27T09:21:56;10.07;;;5.85;;
74620;SDS011;64861;47.546;19.254;2023-05-27T09:24:22;14.57;;;5.40;;
74620;SDS011;64861;47.546;19.254;2023-05-27T09:26:50;10.50;;;5.22;;
74620;SDS011;64861;47.546;19.254;2023-05-27T09:29:17;15.27;;;5.55;;
74620;SDS011;64861;47.546;19.254;2023-05-27T09:31:44;26.65;;;6.13;;
74620;SDS011;64861;47.546;19.254;2023-05-27T09:34:16;21.08;;;6.35;;
74620;SDS011;64861;47.546;19.254;2023-05-27T09:36:51;13.40;;;5.32;;
74620;SDS011;64861;47.546;19.254;2023-05-27T09:39:18;12.07;;;5.50;;
74620;SDS011;64861;47.546;19.254;2023-05-27T09:41:49;22.35;;;6.32;;
74620;SDS011;64861;47.546;19.254;2023-05-27T09:44:16;14.93;;;6.15;;
74620;SDS011;64861;47.546;19.254;2023-05-27T09:46:42;12.18;;;5.63;;
74620;SDS011;64861;47.546;19.254;2023-05-27T09:49:10;12.30;;;5.03;;
74620;SDS011;64861;47.546;19.254;2023-05-27T09:51:35;11.63;;;5.18;;
74620;SDS011;64861;47.546;19.254;2023-05-27T09:54:04;10.90;;;5.03;;
74620;SDS011;64861;47.546;19.254;2023-05-27T09:56:31;12.82;;;5.03;;
74620;SDS011;64861;47.546;19.254;2023-05-27T09:58:57;15.95;;;5.72;;
74620;SDS011;64861;47.546;19.254;2023-05-27T10:01:27;23.02;;;6.88;;
74620;SDS011;64861;47.546;19.254;2023-05-27T10:03:54;21.80;;;6.68;;
74620;SDS011;64861;47.546;19.254;2023-05-27T10:06:23;27.15;;;6.60;;
74620;SDS011;64861;47.546;19.254;2023-05-27T10:08:51;21.42;;;6.43;;
74620;SDS011;64861;47.546;19.254;2023-05-27T10:11:20;21.70;;;6.50;;
74620;SDS011;64861;47.546;19.254;2023-05-27T10:13:47;20.90;;;6.95;;
74620;SDS011;64861;47.546;19.254;2023-05-27T10:16:22;17.35;;;6.40;;
74620;SDS011;64861;47.546;19.254;2023-05-27T10:18:48;25.95;;;6.10;;
74620;SDS011;64861;47.546;19.254;2023-05-27T10:21:18;21.50;;;5.85;;
74620;SDS011;64861;47.546;19.254;2023-05-27T10:23:58;23.13;;;6.10;;
74620;SDS011;64861;47.546;19.254;2023-05-27T10:26:59;17.05;;;5.43;;
74620;SDS011;64861;47.546;19.254;2023-05-27T10:29:34;15.73;;;5.75;;
74620;SDS011;64861;47.546;19.254;2023-05-27T10:32:01;21.27;;;5.68;;
74620;SDS011;64861;47.546;19.254;2023-05-27T10:34:33;15.95;;;5.72;;
74620;SDS011;64861;47.546;19.254;2023-05-27T10:37:01;18.67;;;5.45;;
74620;SDS011;64861;47.546;19.254;2023-05-27T10:39:27;16.67;;;5.35;;
74620;SDS011;64861;47.546;19.254;2023-05-27T10:41:53;14.20;;;5.57;;
74620;SDS011;64861;47.546;19.254;2023-05-27T10:44:32;15.82;;;5.43;;
74620;SDS011;64861;47.546;19.254;2023-05-27T10:47:12;18.77;;;6.40;;
74620;SDS011;64861;47.546;19.254;2023-05-27T10:49:45;17.58;;;5.88;;
74620;SDS011;64861;47.546;19.254;2023-05-27T10:52:13;26.17;;;5.15;;
74620;SDS011;64861;47.546;19.254;2023-05-27T10:54:41;16.17;;;5.70;;
74620;SDS011;64861;47.546;19.254;2023-05-27T10:57:08;19.85;;;5.50;;
74620;SDS011;64861;47.546;19.254;2023-05-27T11:02:17;21.88;;;6.00;;
74620;SDS011;64861;47.546;19.254;2023-05-27T11:04:44;15.85;;;5.55;;
74620;SDS011;64861;47.546;19.254;2023-05-27T11:07:10;16.92;;;5.85;;
74620;SDS011;64861;47.546;19.254;2023-05-27T11:09:48;16.23;;;5.40;;
74620;SDS011;64861;47.546;19.254;2023-05-27T11:12:16;16.73;;;5.57;;
74620;SDS011;64861;47.546;19.254;2023-05-27T11:14:42;17.20;;;5.85;;
74620;SDS011;64861;47.546;19.254;2023-05-27T11:17:12;18.00;;;6.03;;
74620;SDS011;64861;47.546;19.254;2023-05-27T11:19:38;23.30;;;6.15;;
74620;SDS011;64861;47.546;19.254;2023-05-27T11:22:07;17.77;;;6.05;;
74620;SDS011;64861;47.546;19.254;2023-05-27T11:24:34;12.93;;;5.85;;
74620;SDS011;64861;47.546;19.254;2023-05-27T11:27:13;14.07;;;6.05;;
74620;SDS011;64861;47.546;19.254;2023-05-27T11:29:40;17.35;;;5.95;;
74620;SDS011;64861;47.546;19.254;2023-05-27T11:32:17;13.57;;;5.93;;
74620;SDS011;64861;47.546;19.254;2023-05-27T11:34:45;14.88;;;5.63;;
74620;SDS011;64861;47.546;19.254;2023-05-27T11:37:11;16.85;;;6.50;;
74620;SDS011;64861;47.546;19.254;2023-05-27T11:39:37;14.23;;;6.00;;
74620;SDS011;64861;47.546;19.254;2023-05-27T11:42:05;15.30;;;5.78;;
74620;SDS011;64861;47.546;19.254;2023-05-27T11:44:33;14.80;;;5.85;;
74620;SDS011;64861;47.546;19.254;2023-05-27T11:46:59;16.80;;;5.72;;
74620;SDS011;64861;47.546;19.254;2023-05-27T11:49:25;14.43;;;5.82;;
74620;SDS011;64861;47.546;19.254;2023-05-27T11:51:54;16.00;;;6.10;;
74620;SDS011;64861;47.546;19.254;2023-05-27T11:56:50;13.40;;;5.95;;
74620;SDS011;64861;47.546;19.254;2023-05-27T11:59:17;11.45;;;5.60;;
74620;SDS011;64861;47.546;19.254;2023-05-27T12:01:43;13.63;;;5.40;;
74620;SDS011;64861;47.546;19.254;2023-05-27T12:04:10;13.05;;;6.40;;
74620;SDS011;64861;47.546;19.254;2023-05-27T12:06:36;12.43;;;5.70;;
74620;SDS011;64861;47.546;19.254;2023-05-27T12:09:05;13.07;;;5.78;;
74620;SDS011;64861;47.546;19.254;2023-05-27T12:11:31;15.65;;;6.07;;
74620;SDS011;64861;47.546;19.254;2023-05-27T12:13:58;11.73;;;6.10;;
74620;SDS011;64861;47.546;19.254;2023-05-27T12:16:23;16.20;;;5.63;;
74620;SDS011;64861;47.546;19.254;2023-05-27T12:18:49;20.10;;;5.55;;
74620;SDS011;64861;47.546;19.254;2023-05-27T12:21:15;15.85;;;5.95;;
74620;SDS011;64861;47.546;19.254;2023-05-27T12:23:41;13.43;;;5.45;;
74620;SDS011;64861;47.546;19.254;2023-05-27T12:26:07;12.82;;;5.30;;
74620;SDS011;64861;47.546;19.254;2023-05-27T12:28:33;13.70;;;5.22;;
74620;SDS011;64861;47.546;19.254;2023-05-27T12:30:58;16.98;;;5.78;;
74620;SDS011;64861;47.546;19.254;2023-05-27T12:33:23;15.85;;;5.55;;
74620;SDS011;64861;47.546;19.254;2023-05-27T12:35:49;13.40;;;5.32;;
74620;SDS011;64861;47.546;19.254;2023-05-27T12:38:16;11.68;;;4.70;;
74620;SDS011;64861;47.546;19.254;2023-05-27T12:40:41;11.75;;;5.43;;
74620;SDS011;64861;47.546;19.254;2023-05-27T12:43:07;17.48;;;5.25;;
74620;SDS011;64861;47.546;19.254;2023-05-27T12:45:32;14.00;;;6.00;;
74620;SDS011;64861;47.546;19.254;2023-05-27T12:47:58;16.30;;;5.50;;
74620;SDS011;64861;47.546;19.254;2023-05-27T12:50:24;19.58;;;6.30;;
74620;SDS011;64861;47.546;19.254;2023-05-27T12:52:50;14.27;;;5.55;;
74620;SDS011;64861;47.546;19.254;2023-05-27T12:55:17;15.35;;;5.70;;
74620;SDS011;64861;47.546;19.254;2023-05-27T12:57:47;11.98;;;5.32;;
74620;SDS011;64861;47.546;19.254;2023-05-27T13:00:13;13.73;;;5.22;;
74620;SDS011;64861;47.546;19.254;2023-05-27T13:02:40;17.35;;;5.68;;
74620;SDS011;64861;47.546;19.254;2023-05-27T13:05:05;16.73;;;5.63;;
74620;SDS011;64861;47.546;19.254;2023-05-27T13:07:32;11.88;;;4.90;;
74620;SDS011;64861;47.546;19.254;2023-05-27T13:10:03;11.38;;;5.38;;
74620;SDS011;64861;47.546;19.254;2023-05-27T13:12:30;13.77;;;4.90;;
74620;SDS011;64861;47.546;19.254;2023-05-27T13:14:58;13.70;;;5.03;;
74620;SDS011;64861;47.546;19.254;2023-05-27T13:17:24;12.27;;;5.03;;
74620;SDS011;64861;47.546;19.254;2023-05-27T13:19:50;20.15;;;5.30;;
74620;SDS011;64861;47.546;19.254;2023-05-27T13:22:15;13.70;;;4.97;;
74620;SDS011;64861;47.546;19.254;2023-05-27T13:24:41;62.65;;;6.68;;
74620;SDS011;64861;47.546;19.254;2023-05-27T13:27:07;12.90;;;5.40;;
74620;SDS011;64861;47.546;19.254;2023-05-27T13:29:34;21.88;;;5.15;;
74620;SDS011;64861;47.546;19.254;2023-05-27T13:31:59;16.42;;;4.82;;
74620;SDS011;64861;47.546;19.254;2023-05-27T13:34:25;11.90;;;5.32;;
74620;SDS011;64861;47.546;19.254;2023-05-27T13:36:52;11.07;;;5.13;;
74620;SDS011;64861;47.546;19.254;2023-05-27T13:39:18;16.05;;;5.70;;
74620;SDS011;64861;47.546;19.254;2023-05-27T13:41:43;11.80;;;5.13;;
74620;SDS011;64861;47.546;19.254;2023-05-27T13:44:09;11.68;;;5.43;;
74620;SDS011;64861;47.546;19.254;2023-05-27T13:46:34;15.07;;;5.55;;
74620;SDS011;64861;47.546;19.254;2023-05-27T13:49:00;14.95;;;5.40;;
74620;SDS011;64861;47.546;19.254;2023-05-27T13:51:25;12.70;;;5.32;;
74620;SDS011;64861;47.546;19.254;2023-05-27T13:53:50;9.68;;;5.38;;
74620;SDS011;64861;47.546;19.254;2023-05-27T13:56:16;13.85;;;6.00;;
74620;SDS011;64861;47.546;19.254;2023-05-27T13:58:41;12.38;;;5.40;;
74620;SDS011;64861;47.546;19.254;2023-05-27T14:01:07;12.05;;;5.20;;
74620;SDS011;64861;47.546;19.254;2023-05-27T14:03:32;13.82;;;5.63;;
74620;SDS011;64861;47.546;19.254;2023-05-27T14:05:58;9.98;;;5.57;;
74620;SDS011;64861;47.546;19.254;2023-05-27T14:08:23;11.88;;;5.35;;
74620;SDS011;64861;47.546;19.254;2023-05-27T14:10:49;10.25;;;5.65;;
74620;SDS011;64861;47.546;19.254;2023-05-27T14:13:14;11.00;;;5.95;;
74620;SDS011;64861;47.546;19.254;2023-05-27T14:15:40;11.30;;;5.97;;
74620;SDS011;64861;47.546;19.254;2023-05-27T14:18:06;16.70;;;6.28;;
74620;SDS011;64861;47.546;19.254;2023-05-27T14:20:32;14.80;;;6.10;;
74620;SDS011;64861;47.546;19.254;2023-05-27T14:22:59;16.17;;;6.10;;
74620;SDS011;64861;47.546;19.254;2023-05-27T14:25:27;15.60;;;5.90;;
74620;SDS011;64861;47.546;19.254;2023-05-27T14:27:52;17.52;;;6.32;;
74620;SDS011;64861;47.546;19.254;2023-05-27T14:30:18;13.27;;;6.15;;
74620;SDS011;64861;47.546;19.254;2023-05-27T14:32:43;11.23;;;6.50;;
74620;SDS011;64861;47.546;19.254;2023-05-27T14:35:10;16.60;;;6.50;;